Aérodrome :
LOGIN :

S'inscrire | Disclaimer

   EN    FR    IT 

 










Légende :    VFR   VFR Marginal   IFR   IFR Intensif   IFR Très Intensif
Visi : 
Plafond : 
>= 8 km
>= 3000ft
5 à 8 km
1000 à 3000 ft
1500m à 5 km
500 à 1000 ft
800 à 1500m
200 à 500 ft
< 800m
< 200 ft
Symboles :   Orages  Brouillard  Fortes neiges  Fortes précipitations  Vent > 20 kt
SIGMETs :   Divers  Orages  Givrage  Turbulence  Onde Orograph.  Cendres Volcan.






- Altitude de l'aérodrome : 18 ft
- Code IATA : AJA


LFKJ - Ajaccio

DERNIER METAR :
  • 160600Z AUTO 04004KT 9999 OVC023 16/12 Q1012 TEMPO BKN008 BKN090

METARs EXPIRÉS :
  • 160530Z AUTO 04005KT 9999 BKN022 OVC030 16/12 Q1011 TEMPO BKN008 BKN090
  • 160500Z AUTO 05004KT 9999 FEW021 BKN031 OVC094 15/12 Q1011 TEMPO BKN008 BKN090
  • 160430Z AUTO 05005KT 9999 FEW023 SCT033 OVC096 15/12 Q1012 TEMPO BKN008 BKN090
  • 160400Z AUTO 05005KT 9999 SCT021 OVC034 15/12 Q1011 TEMPO BKN008 BKN090
  • 160330Z AUTO 03003KT 9999 BKN021 BKN026 BKN034 15/12 Q1011 TEMPO BKN008 BKN090

TAF TAF LFKJ
Valide du 16 à 03h jusqu'au 17 à 03h UTC


160200Z 1603/1703 09005KT 9999 BKN020
TEMPO 1603/1608 6000 BKN008 BKN090
BECMG 1608/1610 24010KT FEW080 BKN100
BECMG 1612/1614 24008KT
BECMG 1619/1621 05005KT BKN010
ATIS : +33 4 95 23 59 85



MET'MAP, la Météo Aéronautique d'un coup d'oeil ! - Copyright ORBIFLY Décembre 2007 - Disclaimer

ORBIFLY MET'MAP TEAM :

Programmation & Développement : Alexandra Zaïnal
Sur une idée originale de : Baudouin d'Aumeries
Assistance à la programmation : Marc-Olivier Méhu
Soutien technique & logistique : Manuel Goepfert

Contact : metmap@orbifly.com




SOURCES & CREDITS :

   NOAA